Time;durP1;ratioP1;P1;durP2;ratioP2;P2;SDS_P1;SDS_P2;PMS_P1;PMS_P2;Temp;Humidity;BMP_temperature;BMP_pressure;BME280_temperature;BME280_humidity;BME280_pressure;Samples;Min_cycle;Max_cycle;Signal;HPM_P1;HPM_P2
2022/01/11 00:00:03;;;;;;;12.68;6.63;;;;;;;-1.07;89.22;102204.69;5045113;28;20123;-68
2022/01/11 00:02:29;;;;;;;24.38;10.02;;;;;;;-1.25;89.14;102184.81;5063188;28;20082;-68
2022/01/11 00:04:55;;;;;;;14.95;6.50;;;;;;;-1.06;89.01;102217.53;5063254;28;20029;-69
2022/01/11 00:07:22;;;;;;;15.60;8.85;;;;;;;-1.20;89.42;102205.50;5063068;28;20025;-70
2022/01/11 00:09:50;;;;;;;16.33;8.38;;;;;;;-1.28;89.48;102180.34;5063368;28;20025;-70
2022/01/11 00:12:15;;;;;;;18.77;7.55;;;;;;;-1.15;89.05;102191.44;5062951;28;20052;-69
2022/01/11 00:14:40;;;;;;;15.40;6.78;;;;;;;-1.09;88.70;102191.84;5063102;28;20021;-70
2022/01/11 00:17:06;;;;;;;9.60;5.25;;;;;;;-1.15;89.14;102192.28;5063242;28;20127;-69
2022/01/11 00:19:33;;;;;;;17.55;7.90;;;;;;;-1.26;89.07;102176.25;5063206;28;20017;-69
2022/01/11 00:22:01;;;;;;;11.10;6.05;;;;;;;-1.09;89.00;102181.66;5062817;28;20029;-68
2022/01/11 00:24:28;;;;;;;14.25;8.00;;;;;;;-1.15;89.21;102197.38;5063295;28;20024;-68
2022/01/11 00:26:55;;;;;;;20.90;10.18;;;;;;;-1.17;88.96;102196.41;5063249;28;20372;-69
2022/01/11 00:29:21;;;;;;;19.10;9.50;;;;;;;-1.25;89.39;102188.22;5044979;28;20032;-69
2022/01/11 00:31:47;;;;;;;14.90;6.95;;;;;;;-1.35;89.39;102167.97;5062612;28;20041;-67
2022/01/11 00:34:15;;;;;;;16.13;7.32;;;;;;;-1.21;89.24;102190.97;5062830;28;20044;-69
2022/01/11 00:36:42;;;;;;;12.85;7.05;;;;;;;-1.28;89.07;102180.34;5062517;28;20033;-69
2022/01/11 00:39:09;;;;;;;13.13;5.75;;;;;;;-1.23;88.89;102167.94;5062878;28;20092;-69
2022/01/11 00:41:40;;;;;;;31.33;10.90;;;;;;;-1.29;89.30;102183.69;5062722;28;20055;-70
2022/01/11 00:44:06;;;;;;;15.02;7.82;;;;;;;-1.17;88.69;102185.31;5062756;28;20033;-69
2022/01/11 00:46:32;;;;;;;9.07;4.97;;;;;;;-1.06;88.33;102181.84;5062559;28;20526;-70
2022/01/11 00:48:58;;;;;;;16.52;8.38;;;;;;;-1.27;88.78;102181.25;5044831;28;20048;-69
2022/01/11 00:51:23;;;;;;;18.95;8.23;;;;;;;-1.29;88.14;102163.31;5062313;28;20017;-70
2022/01/11 00:53:48;;;;;;;20.58;8.05;;;;;;;-1.27;88.83;102187.25;5062578;28;20029;-70
2022/01/11 00:56:14;;;;;;;18.55;9.63;;;;;;;-1.26;88.47;102186.47;5062488;28;20086;-69
2022/01/11 00:58:39;;;;;;;14.88;6.72;;;;;;;-1.31;88.65;102174.19;5062304;28;20029;-69
2022/01/11 01:01:05;;;;;;;9.80;5.32;;;;;;;-1.44;89.02;102178.44;5062464;28;20085;-69
2022/01/11 01:03:30;;;;;;;12.57;6.63;;;;;;;-1.32;88.82;102186.03;5066057;28;20443;-68
2022/01/11 01:05:56;;;;;;;17.55;8.23;;;;;;;-1.36;88.82;102186.63;5048063;28;20132;-70
2022/01/11 01:08:23;;;;;;;12.15;7.30;;;;;;;-1.46;88.94;102174.00;5066316;28;20546;-70
2022/01/11 01:10:50;;;;;;;11.80;6.43;;;;;;;-1.47;88.71;102182.44;5066519;28;20047;-70
2022/01/11 01:13:23;;;;;;;19.88;9.27;;;;;;;-1.40;88.80;102184.59;5066168;28;20025;-70
2022/01/11 01:15:50;;;;;;;23.17;10.80;;;;;;;-1.43;88.79;102192.03;5066192;28;20072;-70
2022/01/11 01:18:22;;;;;;;7.35;4.70;;;;;;;-1.54;89.09;102189.66;5066026;28;20028;-71
2022/01/11 01:20:51;;;;;;;19.75;9.25;;;;;;;-1.66;89.51;102192.19;5065756;28;20036;-70
2022/01/11 01:23:18;;;;;;;17.92;9.07;;;;;;;-1.63;89.37;102186.44;5066151;28;20036;-69
2022/01/11 01:25:45;;;;;;;25.83;8.77;;;;;;;-1.63;89.48;102200.06;5065909;28;20028;-70
2022/01/11 01:28:12;;;;;;;22.92;9.65;;;;;;;-1.61;89.36;102207.81;5065930;28;20187;-70
2022/01/11 01:30:38;;;;;;;20.80;10.05;;;;;;;-1.59;89.30;102202.81;5066024;28;20020;-70
2022/01/11 01:33:04;;;;;;;25.85;12.07;;;;;;;-1.61;89.34;102202.72;5047721;28;20456;-69
2022/01/11 01:35:37;;;;;;;25.05;9.38;;;;;;;-1.63;89.37;102196.63;5066002;28;20599;-71
2022/01/11 01:38:03;;;;;;;15.02;8.27;;;;;;;-1.65;89.36;102200.72;5065752;28;20156;-70
2022/01/11 01:40:35;;;;;;;12.85;8.30;;;;;;;-1.63;89.21;102197.50;5065638;28;20465;-70
2022/01/11 01:43:02;;;;;;;13.00;7.68;;;;;;;-1.73;89.08;102179.81;5065919;28;20128;-69
2022/01/11 01:45:28;;;;;;;20.05;8.48;;;;;;;-1.58;88.68;102200.38;5047878;28;20017;-70
2022/01/11 01:47:57;;;;;;;19.67;9.95;;;;;;;-1.77;89.04;102177.81;5065814;28;20028;-69
2022/01/11 01:50:23;;;;;;;15.13;7.30;;;;;;;-1.62;88.91;102188.22;5065663;28;20017;-70
2022/01/11 01:52:49;;;;;;;18.88;8.95;;;;;;;-1.63;88.85;102187.31;5065466;28;20397;-70
2022/01/11 01:55:14;;;;;;;16.98;7.82;;;;;;;-1.66;88.87;102181.16;5065635;28;20037;-71
2022/01/11 01:57:40;;;;;;;16.23;7.85;;;;;;;-1.74;89.24;102180.56;5065564;28;20028;-70
2022/01/11 02:00:11;;;;;;;25.42;11.73;;;;;;;-1.69;88.84;102173.28;5065424;28;20013;-70
2022/01/11 02:02:38;;;;;;;14.15;7.70;;;;;;;-1.76;89.21;102177.91;5047398;28;20025;-70
2022/01/11 02:05:06;;;;;;;20.95;8.20;;;;;;;-1.75;89.06;102173.72;5065274;28;20036;-70
2022/01/11 02:07:32;;;;;;;17.85;7.93;;;;;;;-1.64;88.65;102179.56;5065176;28;20024;-70
2022/01/11 02:09:57;;;;;;;21.33;9.98;;;;;;;-1.78;88.89;102170.97;5065251;28;20532;-70
2022/01/11 02:12:24;;;;;;;17.10;7.43;;;;;;;-1.70;88.94;102176.59;5065369;28;20040;-70
2022/01/11 02:14:50;;;;;;;15.95;9.23;;;;;;;-1.77;88.96;102178.69;5046103;28;20048;-70
2022/01/11 02:17:15;;;;;;;17.38;8.38;;;;;;;-1.76;89.17;102180.47;5065278;28;20032;-70
2022/01/11 02:19:40;;;;;;;11.90;6.45;;;;;;;-1.80;89.17;102177.59;5047302;28;20033;-70
2022/01/11 02:22:06;;;;;;;25.00;11.95;;;;;;;-1.81;89.17;102188.56;5064872;28;20031;-71
2022/01/11 02:24:33;;;;;;;18.27;7.72;;;;;;;-1.80;89.42;102175.94;5047131;28;20052;-69
2022/01/11 02:26:59;;;;;;;14.40;8.30;;;;;;;-1.72;88.93;102188.31;5065247;28;20062;-70
2022/01/11 02:29:27;;;;;;;15.20;7.28;;;;;;;-1.76;88.99;102185.56;5064860;28;20103;-70
2022/01/11 02:31:52;;;;;;;20.98;10.52;;;;;;;-1.82;88.95;102177.50;5064656;28;20045;-70
2022/01/11 02:34:17;;;;;;;18.15;9.18;;;;;;;-1.78;89.14;102188.78;5065096;28;20059;-70
2022/01/11 02:36:43;;;;;;;13.35;6.75;;;;;;;-1.82;88.97;102169.84;5064751;28;20021;-69
2022/01/11 02:39:09;;;;;;;14.07;7.85;;;;;;;-1.69;88.86;102186.03;5064801;28;20550;-70
2022/01/11 02:41:34;;;;;;;13.30;7.63;;;;;;;-1.77;89.05;102182.91;5064603;28;20025;-69
2022/01/11 02:44:00;;;;;;;34.70;13.63;;;;;;;-1.72;88.73;102180.69;5064908;28;20021;-70
2022/01/11 02:46:27;;;;;;;17.17;7.50;;;;;;;-1.65;88.09;102163.41;5065011;28;20398;-70
2022/01/11 02:48:55;;;;;;;17.98;8.48;;;;;;;-1.56;87.91;102168.25;5064713;28;20508;-70
2022/01/11 02:51:22;;;;;;;12.32;7.00;;;;;;;-1.58;87.91;102174.03;5064143;28;20047;-70
2022/01/11 02:53:50;;;;;;;11.90;6.20;;;;;;;-1.57;87.79;102170.69;5046398;28;20116;-70
2022/01/11 02:56:17;;;;;;;22.00;8.13;;;;;;;-1.70;88.16;102158.75;5064442;28;20025;-70
2022/01/11 02:58:43;;;;;;;16.15;7.03;;;;;;;-1.59;87.85;102146.78;5046316;28;20032;-70
2022/01/11 03:01:10;;;;;;;14.07;7.70;;;;;;;-1.51;87.68;102159.28;5064395;28;20029;-70
2022/01/11 03:03:36;;;;;;;22.77;8.63;;;;;;;-1.65;88.00;102155.78;5064370;28;20092;-71
2022/01/11 03:06:03;;;;;;;21.02;8.88;;;;;;;-1.55;87.34;102166.59;5064025;28;20043;-71
2022/01/11 03:08:32;;;;;;;21.08;9.30;;;;;;;-1.55;87.46;102164.94;5064258;28;20021;-70
2022/01/11 03:10:58;;;;;;;13.40;6.97;;;;;;;-1.74;88.16;102162.75;5064202;28;20020;-71
2022/01/11 03:13:24;;;;;;;17.40;8.30;;;;;;;-1.59;87.62;102162.06;5063926;28;20028;-70
2022/01/11 03:15:52;;;;;;;18.35;8.77;;;;;;;-1.47;86.83;102152.72;5063997;28;20088;-71
2022/01/11 03:18:18;;;;;;;15.75;7.50;;;;;;;-1.56;87.19;102142.78;5064265;28;20029;-70
2022/01/11 03:20:45;;;;;;;14.30;6.53;;;;;;;-1.44;87.08;102146.97;5063948;28;20428;-69
2022/01/11 03:23:13;;;;;;;14.50;8.05;;;;;;;-1.51;87.33;102149.09;5063699;28;20144;-69
2022/01/11 03:25:40;;;;;;;16.83;6.55;;;;;;;-1.50;87.02;102142.31;5063533;28;20028;-70
2022/01/11 03:28:05;;;;;;;12.15;6.45;;;;;;;-1.44;86.52;102136.78;5063057;28;20029;-70
2022/01/11 03:30:31;;;;;;;13.35;6.03;;;;;;;-1.43;86.60;102141.09;5062966;28;20449;-71
2022/01/11 03:32:56;;;;;;;15.30;7.32;;;;;;;-1.53;86.91;102160.84;5063462;28;20064;-72
2022/01/11 03:35:23;;;;;;;30.98;11.55;;;;;;;-1.70;87.67;102153.66;5045900;28;20025;-72
2022/01/11 03:37:49;;;;;;;20.50;9.02;;;;;;;-1.56;87.53;102159.72;5063454;28;20040;-71
2022/01/11 03:40:18;;;;;;;27.92;13.30;;;;;;;-1.62;87.79;102155.09;5063449;28;20035;-72
2022/01/11 03:42:44;;;;;;;12.93;6.35;;;;;;;-1.66;87.74;102148.91;5063375;28;20021;-71
2022/01/11 03:45:12;;;;;;;11.93;6.30;;;;;;;-1.75;88.25;102146.59;5063764;28;20040;-72
2022/01/11 03:47:37;;;;;;;21.55;10.10;;;;;;;-1.71;88.52;102146.81;5063468;28;20033;-72
2022/01/11 03:50:04;;;;;;;16.50;8.63;;;;;;;-1.61;88.04;102149.22;5063432;28;20025;-71
2022/01/11 03:52:30;;;;;;;19.30;8.63;;;;;;;-1.62;88.27;102145.81;5062932;28;20074;-71
2022/01/11 03:57:22;;;;;;;15.65;6.78;;;;;;;-1.43;87.67;102143.63;5063420;28;20054;-72
2022/01/11 03:59:47;;;;;;;11.38;5.78;;;;;;;-1.29;86.87;102152.22;5063308;28;20024;-72
2022/01/11 04:02:13;;;;;;;18.60;7.70;;;;;;;-1.38;87.19;102147.38;5063297;28;20035;-72
2022/01/11 04:04:39;;;;;;;21.13;7.88;;;;;;;-1.35;87.25;102147.59;5063522;28;20513;-70
2022/01/11 04:07:04;;;;;;;13.07;7.55;;;;;;;-1.26;86.25;102132.03;5063206;28;20021;-70
2022/01/11 04:09:30;;;;;;;15.90;6.35;;;;;;;-1.35;86.68;102137.41;5063333;28;20021;-71
2022/01/11 04:11:55;;;;;;;16.27;7.05;;;;;;;-1.26;86.49;102144.78;5063106;28;20437;-70
2022/01/11 04:14:22;;;;;;;13.30;6.60;;;;;;;-1.17;86.20;102144.53;5062230;28;20029;-71
2022/01/11 04:16:48;;;;;;;17.13;8.00;;;;;;;-1.23;85.83;102116.09;5062133;28;20021;-70
2022/01/11 04:19:13;;;;;;;14.20;6.90;;;;;;;-1.10;85.51;102133.09;5062050;28;20033;-72
2022/01/11 04:21:38;;;;;;;14.68;7.30;;;;;;;-1.25;85.51;102116.00;5061738;28;20116;-72
2022/01/11 04:24:04;;;;;;;13.18;6.07;;;;;;;-1.28;86.37;102126.84;5044967;28;20021;-71
2022/01/11 04:26:29;;;;;;;16.20;7.82;;;;;;;-1.15;85.88;102120.91;5044965;28;20024;-70
2022/01/11 04:28:55;;;;;;;16.55;8.82;;;;;;;-1.14;85.27;102111.63;5062907;28;20028;-70
2022/01/11 04:31:20;;;;;;;10.93;6.40;;;;;;;-1.01;85.10;102108.22;5044775;28;20059;-70
2022/01/11 04:33:46;;;;;;;18.42;8.38;;;;;;;-0.94;84.56;102104.44;5062838;28;20048;-68
2022/01/11 04:36:12;;;;;;;16.50;6.88;;;;;;;-1.15;85.13;102084.38;5062751;28;20108;-69
2022/01/11 04:38:39;;;;;;;10.05;6.03;;;;;;;-1.06;84.99;102081.53;5066873;28;20051;-69
2022/01/11 04:41:04;;;;;;;14.65;7.47;;;;;;;-0.88;84.04;102071.69;5049051;28;20017;-69
2022/01/11 04:43:32;;;;;;;12.85;6.85;;;;;;;-0.97;84.34;102073.59;5066747;28;20582;-67
2022/01/11 04:45:58;;;;;;;17.13;6.90;;;;;;;-1.00;84.10;102092.13;5048863;28;20029;-70
2022/01/11 04:48:23;;;;;;;15.93;7.25;;;;;;;-1.11;84.45;102078.69;5048825;28;20028;-70
2022/01/11 04:50:49;;;;;;;18.95;9.40;;;;;;;-1.20;84.63;102078.06;5066800;28;20028;-71
2022/01/11 04:53:15;;;;;;;14.05;8.20;;;;;;;-1.14;85.32;102101.41;5066476;28;20467;-72
2022/01/11 04:55:41;;;;;;;11.40;5.93;;;;;;;-1.08;86.24;102093.28;5066723;28;20089;-71
2022/01/11 04:58:07;;;;;;;17.25;7.68;;;;;;;-0.98;85.74;102107.53;5066678;28;20072;-71
2022/01/11 05:00:33;;;;;;;20.98;10.27;;;;;;;-1.02;85.84;102114.09;5066308;28;20025;-72
2022/01/11 05:02:59;;;;;;;17.05;5.10;;;;;;;-1.02;86.53;102125.19;5048566;28;20044;-72
2022/01/11 05:05:29;;;;;;;25.55;12.48;;;;;;;-1.03;86.41;102115.78;5048616;28;20025;-72
2022/01/11 05:07:56;;;;;;;24.42;12.10;;;;;;;-0.98;86.72;102118.63;5048445;28;20052;-73
2022/01/11 05:10:23;;;;;;;20.05;8.82;;;;;;;-0.94;87.07;102117.19;5066457;28;20080;-73
2022/01/11 05:12:49;;;;;;;18.75;7.53;;;;;;;-0.78;86.33;102109.75;5066268;28;20052;-72
2022/01/11 05:15:16;;;;;;;22.13;8.63;;;;;;;-0.92;86.25;102095.19;5066448;28;20095;-74
2022/01/11 05:17:43;;;;;;;11.60;6.93;;;;;;;-0.81;86.87;102106.09;5048390;28;20017;-73
2022/01/11 05:20:10;;;;;;;15.63;7.72;;;;;;;-0.56;85.35;102108.59;5066179;28;20040;-73
2022/01/11 05:22:35;;;;;;;23.05;10.35;;;;;;;-0.78;85.93;102099.53;5047764;28;20063;-73
2022/01/11 05:25:01;;;;;;;19.98;11.02;;;;;;;-0.82;86.68;102115.44;5066296;28;20021;-73
2022/01/11 05:27:30;;;;;;;17.00;7.72;;;;;;;-0.66;86.23;102102.03;5066224;28;20385;-75
2022/01/11 05:29:55;;;;;;;20.77;9.25;;;;;;;-0.70;86.18;102109.38;5066365;28;20023;-78
2022/01/11 05:32:21;;;;;;;22.25;10.90;;;;;;;-0.81;87.03;102108.66;5065885;28;20108;-70
2022/01/11 05:34:47;;;;;;;28.70;13.25;;;;;;;-0.74;86.98;102121.03;5066152;28;20428;-71
2022/01/11 05:37:12;;;;;;;24.73;11.70;;;;;;;-0.78;87.58;102117.41;5065978;28;20025;-69
2022/01/11 05:39:38;;;;;;;26.08;13.27;;;;;;;-0.63;87.27;102111.53;5048227;28;20035;-69
2022/01/11 05:42:06;;;;;;;24.33;10.80;;;;;;;-0.60;87.18;102118.50;5065958;28;20047;-69
2022/01/11 05:44:36;;;;;;;21.98;10.05;;;;;;;-0.58;86.96;102117.81;5065703;28;20088;-69
2022/01/11 05:47:04;;;;;;;14.13;7.35;;;;;;;-0.37;85.94;102109.78;5065997;28;20035;-69
2022/01/11 05:49:29;;;;;;;13.68;6.95;;;;;;;-0.43;85.68;102099.19;5065646;28;20067;-70
2022/01/11 05:51:55;;;;;;;27.63;11.60;;;;;;;-0.44;85.51;102098.31;5047418;28;20024;-69
2022/01/11 05:54:20;;;;;;;18.05;9.20;;;;;;;-0.48;85.42;102098.00;5065803;28;20078;-69
2022/01/11 05:56:46;;;;;;;15.27;7.30;;;;;;;-0.45;85.43;102100.75;5065728;28;20043;-70
2022/01/11 05:59:11;;;;;;;20.10;9.57;;;;;;;-0.55;85.70;102086.50;5065696;28;20036;-69
2022/01/11 06:01:36;;;;;;;27.45;11.18;;;;;;;-0.63;86.20;102086.03;5065342;28;20033;-69
2022/01/11 06:04:02;;;;;;;21.17;9.48;;;;;;;-0.60;85.76;102070.91;5065683;28;20109;-67
2022/01/11 06:06:27;;;;;;;24.15;11.40;;;;;;;-0.57;85.85;102076.22;5065560;28;20025;-75
2022/01/11 06:08:53;;;;;;;13.88;7.55;;;;;;;-0.57;85.56;102060.91;5065840;28;20009;-74
2022/01/11 06:11:18;;;;;;;19.33;9.63;;;;;;;-0.64;86.24;102068.97;5065217;28;20060;-73
2022/01/11 06:13:44;;;;;;;18.92;7.65;;;;;;;-0.43;85.25;102066.88;5065345;28;20027;-69
2022/01/11 06:16:10;;;;;;;19.33;10.30;;;;;;;-0.57;85.62;102071.09;5065127;28;20017;-75
2022/01/11 06:18:35;;;;;;;29.08;11.38;;;;;;;-0.78;86.39;102051.06;5047481;28;20162;-75
2022/01/11 06:21:02;;;;;;;21.83;10.85;;;;;;;-0.84;87.24;102050.69;5065427;28;20029;-73
2022/01/11 06:23:27;;;;;;;26.75;12.73;;;;;;;-0.64;87.18;102067.28;5065729;28;20060;-73
2022/01/11 06:25:53;;;;;;;21.25;10.13;;;;;;;-0.64;87.17;102063.84;5065403;28;20021;-72
2022/01/11 06:28:18;;;;;;;26.40;12.30;;;;;;;-0.71;87.12;102046.38;5065288;28;20105;-74
2022/01/11 06:30:44;;;;;;;12.88;6.22;;;;;;;-0.34;86.00;102051.28;5065362;28;20481;-71
2022/01/11 06:33:09;;;;;;;21.33;8.65;;;;;;;-0.42;85.90;102048.25;5043346;28;20046;-82
2022/01/11 06:35:34;;;;;;;19.88;8.57;;;;;;;-0.53;86.19;102057.75;5043922;28;20025;-73
2022/01/11 06:38:00;;;;;;;13.40;7.25;;;;;;;-0.47;86.11;102056.38;5044797;28;20048;-75
2022/01/11 06:40:25;;;;;;;19.20;9.57;;;;;;;-0.52;85.65;102051.88;5042263;28;20048;-73
2022/01/11 06:42:51;;;;;;;30.25;13.80;;;;;;;-0.64;86.47;102074.06;5044642;28;20079;-76
2022/01/11 06:45:17;;;;;;;25.23;12.10;;;;;;;-0.76;87.26;102075.03;5044638;28;20360;-75
2022/01/11 06:47:43;;;;;;;23.38;11.57;;;;;;;-0.63;87.74;102086.03;5044684;28;20342;-75
2022/01/11 06:50:09;;;;;;;19.00;8.52;;;;;;;-0.51;87.27;102061.28;5059601;28;20131;-72
2022/01/11 06:52:35;;;;;;;18.60;9.75;;;;;;;-0.41;86.24;102052.56;5044267;28;20026;-73
2022/01/11 06:55:02;;;;;;;22.80;10.23;;;;;;;-0.46;86.36;102053.94;5043175;28;20089;-73
2022/01/11 06:57:28;;;;;;;21.00;9.05;;;;;;;-0.44;85.76;102021.75;5044382;28;20063;-71
2022/01/11 06:59:54;;;;;;;17.70;7.95;;;;;;;-0.21;84.77;102040.19;5043806;28;20028;-73
2022/01/11 07:02:19;;;;;;;14.73;7.88;;;;;;;-0.28;85.00;102023.59;5043033;28;20029;-71
2022/01/11 07:04:44;;;;;;;15.15;7.68;;;;;;;-0.28;85.02;102032.91;5043126;28;20462;-70
2022/01/11 07:07:10;;;;;;;13.27;8.23;;;;;;;-0.38;85.02;102021.22;5044228;28;20147;-72
2022/01/11 07:09:36;;;;;;;18.25;9.05;;;;;;;-0.27;85.30;102044.88;5044224;28;20022;-73
2022/01/11 07:12:01;;;;;;;12.82;6.32;;;;;;;-0.32;85.11;102046.28;5044121;28;20355;-71
2022/01/11 07:14:27;;;;;;;19.30;8.68;;;;;;;-0.46;85.65;102030.97;5044451;28;20045;-73
2022/01/11 07:16:52;;;;;;;19.10;7.50;;;;;;;-0.32;85.17;102042.03;5044063;28;20025;-74
2022/01/11 07:19:19;;;;;;;24.23;12.57;;;;;;;-0.41;85.53;102039.81;5044180;28;20104;-77
2022/01/11 07:21:45;;;;;;;19.92;10.15;;;;;;;-0.31;85.55;102037.81;5043759;28;20528;-72
2022/01/11 07:24:12;;;;;;;14.68;8.25;;;;;;;-0.29;85.05;102021.81;5043950;28;20032;-71
2022/01/11 07:26:37;;;;;;;12.82;7.03;;;;;;;-0.23;85.01;102041.75;5043514;28;20033;-72
2022/01/11 07:29:05;;;;;;;15.18;7.90;;;;;;;-0.21;85.26;102052.06;5041241;28;20029;-74
2022/01/11 07:31:36;;;;;;;20.83;8.52;;;;;;;-0.24;85.45;102046.75;5041720;28;20131;-71
2022/01/11 07:34:05;;;;;;;9.00;6.45;;;;;;;-0.17;85.16;102041.22;5063044;28;20452;-75
2022/01/11 07:36:30;;;;;;;18.23;9.60;;;;;;;-0.07;84.80;102029.94;5063046;28;20025;-74
2022/01/11 07:38:56;;;;;;;18.02;8.90;;;;;;;-0.13;84.88;102028.75;5063244;28;20546;-71
2022/01/11 07:41:21;;;;;;;29.80;10.90;;;;;;;-0.17;84.98;102043.78;5063177;28;20024;-72
2022/01/11 07:43:47;;;;;;;15.80;8.52;;;;;;;-0.13;85.05;102045.75;5044998;28;20047;-75
2022/01/11 07:46:12;;;;;;;19.80;9.82;;;;;;;-0.29;85.73;102051.56;5063044;28;20028;-73
2022/01/11 07:48:37;;;;;;;24.33;11.20;;;;;;;-0.40;86.41;102039.00;5063044;28;20017;-73
2022/01/11 07:51:03;;;;;;;27.60;14.65;;;;;;;-0.40;87.05;102058.56;5062858;28;20103;-75
2022/01/11 07:53:28;;;;;;;29.48;13.70;;;;;;;-0.42;87.84;102061.00;5044690;28;20031;-74
2022/01/11 07:55:54;;;;;;;25.83;14.63;;;;;;;-0.34;88.01;102079.38;5063202;28;20025;-75
2022/01/11 07:58:19;;;;;;;29.70;14.15;;;;;;;-0.28;88.15;102072.09;5062842;28;20033;-75
2022/01/11 08:00:45;;;;;;;30.48;13.65;;;;;;;-0.20;88.19;102074.22;5044739;28;20025;-75
2022/01/11 08:03:10;;;;;;;24.98;10.73;;;;;;;-0.21;88.26;102070.81;5062843;28;20052;-74
2022/01/11 08:05:36;;;;;;;28.00;15.30;;;;;;;-0.13;88.05;102074.72;5063109;28;20086;-76
2022/01/11 08:08:01;;;;;;;34.30;14.30;;;;;;;-0.17;88.38;102059.09;5062662;28;20021;-73
2022/01/11 08:10:26;;;;;;;19.15;8.38;;;;;;;-0.07;87.99;102053.81;5044728;28;20052;-75
2022/01/11 08:12:52;;;;;;;32.63;14.00;;;;;;;-0.02;87.28;102044.72;5043600;28;20027;-75
2022/01/11 08:15:18;;;;;;;37.22;15.50;;;;;;;-0.01;87.85;102064.38;5062805;28;20029;-75
2022/01/11 08:17:43;;;;;;;35.70;15.95;;;;;;;0.05;88.19;102068.97;5044494;28;20036;-75
2022/01/11 08:20:09;;;;;;;32.28;15.98;;;;;;;-0.07;88.32;102051.25;5062656;28;20051;-73
2022/01/11 08:22:35;;;;;;;28.88;13.85;;;;;;;0.11;88.38;102074.47;5044475;28;20136;-73
2022/01/11 08:25:01;;;;;;;25.00;11.70;;;;;;;0.12;88.04;102088.13;5062797;28;20029;-75
2022/01/11 08:27:26;;;;;;;30.42;14.02;;;;;;;0.11;87.94;102089.78;5044877;28;20043;-75
2022/01/11 08:29:51;;;;;;;16.35;8.63;;;;;;;0.22;87.36;102084.47;5062571;28;20025;-76
2022/01/11 08:32:17;;;;;;;29.80;12.95;;;;;;;0.09;87.88;102088.84;5062146;28;20107;-74
2022/01/11 08:34:43;;;;;;;30.33;14.85;;;;;;;-0.02;88.17;102066.84;5062509;28;20132;-75
2022/01/11 08:37:08;;;;;;;29.85;11.80;;;;;;;0.17;88.04;102076.53;5062299;28;20021;-75
2022/01/11 08:39:35;;;;;;;25.08;10.88;;;;;;;0.17;88.13;102076.53;5062441;28;20047;-75
2022/01/11 08:42:00;;;;;;;25.70;11.73;;;;;;;0.24;87.56;102073.56;5044196;28;20048;-75
2022/01/11 08:44:27;;;;;;;15.15;8.55;;;;;;;0.32;86.83;102071.47;5062385;28;20048;-76
2022/01/11 08:46:54;;;;;;;15.32;7.75;;;;;;;0.21;87.30;102075.91;5044075;28;20036;-75
2022/01/11 08:49:20;;;;;;;24.67;11.82;;;;;;;0.08;87.55;102050.44;5062187;28;20084;-75
2022/01/11 08:51:45;;;;;;;15.32;7.28;;;;;;;0.25;86.97;102059.13;5061628;28;20021;-73
2022/01/11 08:54:13;;;;;;;10.90;6.40;;;;;;;0.22;86.55;102058.94;5061998;28;20075;-72
2022/01/11 08:56:40;;;;;;;25.17;12.00;;;;;;;0.13;86.62;102036.25;5044384;28;20104;-73
2022/01/11 08:59:05;;;;;;;14.10;6.22;;;;;;;0.35;86.11;102060.56;5044018;28;20029;-76
2022/01/11 09:01:31;;;;;;;21.05;11.48;;;;;;;0.20;86.81;102063.94;5044262;28;20092;-77
2022/01/11 09:03:58;;;;;;;24.55;12.23;;;;;;;0.04;87.11;102033.13;5062307;28;20075;-78
2022/01/11 09:06:23;;;;;;;17.58;8.52;;;;;;;0.30;86.46;102044.06;5061790;28;20076;-74
2022/01/11 09:08:50;;;;;;;22.40;11.82;;;;;;;0.21;86.68;102019.72;5062328;28;20089;-72
2022/01/11 09:11:15;;;;;;;23.58;11.55;;;;;;;0.27;86.57;102041.31;5061658;28;20021;-74
2022/01/11 09:13:41;;;;;;;23.85;10.10;;;;;;;0.40;86.13;102040.41;5043836;28;20031;-71
2022/01/11 09:16:07;;;;;;;21.95;9.07;;;;;;;0.49;85.17;102039.28;5061990;28;20021;-68
2022/01/11 09:18:32;;;;;;;18.80;8.63;;;;;;;0.50;85.20;102055.47;5061880;28;20075;-73
2022/01/11 09:21:00;;;;;;;32.75;14.50;;;;;;;0.32;86.09;102033.13;5061676;28;20033;-70
2022/01/11 09:23:27;;;;;;;19.30;9.73;;;;;;;0.35;85.81;102033.31;5063268;28;20052;-69
2022/01/11 09:25:53;;;;;;;32.13;13.75;;;;;;;0.34;85.69;102044.34;5065461;28;20036;-74
2022/01/11 09:28:20;;;;;;;28.92;13.93;;;;;;;0.26;86.84;102052.34;5065422;28;20025;-74
2022/01/11 09:30:46;;;;;;;15.10;6.43;;;;;;;0.36;86.94;102047.88;5065369;28;20070;-74
2022/01/11 09:33:11;;;;;;;23.98;12.10;;;;;;;0.19;87.31;102035.75;5065123;28;20049;-74
2022/01/11 09:35:37;;;;;;;35.08;16.92;;;;;;;0.17;87.80;102052.66;5065974;28;20021;-74
2022/01/11 09:38:02;;;;;;;30.27;12.50;;;;;;;0.17;88.05;102040.78;5065486;28;20428;-73
2022/01/11 09:40:28;;;;;;;30.05;13.40;;;;;;;0.32;88.08;102050.16;5065394;28;20037;-74
2022/01/11 09:42:54;;;;;;;34.63;14.52;;;;;;;0.33;87.69;102046.81;5065168;28;20017;-73
2022/01/11 09:45:20;;;;;;;36.20;16.45;;;;;;;0.55;86.72;102048.97;5065714;28;20031;-73
2022/01/11 09:47:46;;;;;;;28.88;14.23;;;;;;;0.39;87.58;102052.28;5065324;28;20036;-72
2022/01/11 09:50:13;;;;;;;38.65;17.05;;;;;;;0.47;87.39;102052.75;5047157;28;20024;-74
2022/01/11 09:52:40;;;;;;;40.38;16.45;;;;;;;0.36;87.96;102054.66;5064817;28;20044;-73
2022/01/11 09:55:07;;;;;;;32.83;15.93;;;;;;;0.43;87.95;102054.22;5065146;28;20021;-73
2022/01/11 09:57:33;;;;;;;35.72;17.83;;;;;;;0.31;88.18;102027.94;5047033;28;20017;-74
2022/01/11 09:59:58;;;;;;;30.35;12.18;;;;;;;0.49;88.28;102046.94;5065141;28;20025;-71
2022/01/11 10:02:24;;;;;;;21.17;11.63;;;;;;;0.60;87.01;102044.13;5064866;28;20257;-73
2022/01/11 10:05:01;;;;;;;33.35;15.95;;;;;;;0.40;87.36;102054.03;5065098;28;20099;-74
2022/01/11 10:07:31;;;;;;;31.83;14.30;;;;;;;0.27;88.32;102018.34;5064940;28;20029;-70
2022/01/11 10:09:57;;;;;;;23.05;8.77;;;;;;;0.65;86.71;102032.50;5064828;28;20160;-73
2022/01/11 10:12:22;;;;;;;22.63;10.35;;;;;;;0.49;87.18;102041.84;5064739;28;20063;-74
2022/01/11 10:14:52;;;;;;;32.97;14.68;;;;;;;0.39;87.42;102039.50;5064766;28;20044;-74
2022/01/11 10:17:27;;;;;;;28.00;14.15;;;;;;;0.38;87.71;102030.09;5064673;28;20044;-74
2022/01/11 10:20:08;;;;;;;30.08;16.48;;;;;;;0.34;88.36;102018.78;5064407;28;20051;-73
2022/01/11 10:22:34;;;;;;;26.33;9.88;;;;;;;0.41;88.30;102016.59;5064301;28;20446;-72
2022/01/11 10:25:01;;;;;;;24.88;11.05;;;;;;;0.45;87.83;102014.31;5064742;28;20033;-73
2022/01/11 10:27:32;;;;;;;24.20;11.00;;;;;;;0.48;87.45;102017.06;5064401;28;20043;-71
2022/01/11 10:30:09;;;;;;;50.17;19.17;;;;;;;0.36;88.05;102018.88;5064525;28;20043;-73
2022/01/11 10:32:41;;;;;;;34.75;16.35;;;;;;;0.46;87.53;102005.84;5064104;28;20083;-74
2022/01/11 10:35:09;;;;;;;41.42;17.75;;;;;;;0.50;86.82;102001.81;5063371;28;20032;-74
2022/01/11 10:37:40;;;;;;;45.85;17.20;;;;;;;0.39;88.13;102013.94;5064291;28;20024;-73
2022/01/11 10:40:05;;;;;;;39.67;16.95;;;;;;;0.49;87.44;102006.06;5046557;28;20021;-70
2022/01/11 10:42:33;;;;;;;42.30;19.52;;;;;;;0.49;87.16;102010.28;5064174;28;20100;-74
2022/01/11 10:45:14;;;;;;;39.33;17.63;;;;;;;0.35;88.28;102009.47;5062696;28;20040;-73
2022/01/11 10:47:47;;;;;;;22.65;11.30;;;;;;;0.36;88.40;101993.34;5064115;28;20032;-73
2022/01/11 10:50:15;;;;;;;37.83;17.38;;;;;;;0.47;87.79;101992.28;5063979;28;20075;-73
2022/01/11 10:52:42;;;;;;;37.95;17.55;;;;;;;0.35;88.46;101994.13;5063753;28;20064;-74
2022/01/11 10:55:13;;;;;;;41.17;19.35;;;;;;;0.43;88.73;101995.44;5064174;28;20025;-73
2022/01/11 10:57:39;;;;;;;36.15;16.17;;;;;;;0.66;87.40;101989.91;5063721;28;20044;-73
2022/01/11 11:00:22;;;;;;;29.95;13.25;;;;;;;0.58;87.71;101985.25;5063990;28;20035;-71
2022/01/11 11:02:57;;;;;;;22.48;10.02;;;;;;;0.61;87.12;101974.31;5063899;28;20029;-73
2022/01/11 11:05:29;;;;;;;20.42;9.30;;;;;;;0.69;86.66;101979.88;5063775;28;20139;-71
2022/01/11 11:08:34;;;;;;;30.90;13.20;;;;;;;0.68;86.66;101975.56;5063613;28;20052;-71
2022/01/11 11:11:08;;;;;;;40.58;18.95;;;;;;;0.39;87.57;101990.06;5062132;28;20021;-74
2022/01/11 11:13:35;;;;;;;30.23;14.00;;;;;;;0.35;88.76;101983.91;5063726;28;20039;-73
2022/01/11 11:16:14;;;;;;;29.83;13.52;;;;;;;0.42;88.67;101978.34;5063563;28;20036;-72